Terminal Aerodrome Forecast
Issued by NWS

Home | Current Version | Previous Version | Graphics & Text | Print | Product List | Glossary Off
Versions: 1 2 3 4 5 6 7 8 9 10 11 12 13 14 15 16 17 18 19 20

000
FTUS42 KMHX 071120
TAFPGV
TAF
KPGV 071120Z 0712/0812 21002KT P6SM SCT006
      TEMPO 0712/0713 4SM BR BKN006
     FM071300 22005KT P6SM FEW015
     FM071800 21008KT P6SM VCTS SCT040CB
     FM080000 19006KT P6SM BKN250
      AMD LTD TO CLD VIS AND WIND=

USA.gov is the U.S. government's official web portal to all federal, state and local government web resources and services.